sensor_id;sensor_type;location;lat;lon;timestamp;temperature;humidity
24730;DHT22;12832;52.392;13.066;2022-07-06T00:02:15;28.90;37.00
24730;DHT22;12832;52.392;13.066;2022-07-06T00:04:42;28.90;37.00
24730;DHT22;12832;52.392;13.066;2022-07-06T00:07:09;28.90;37.00
24730;DHT22;12832;52.392;13.066;2022-07-06T00:09:37;28.90;37.00
24730;DHT22;12832;52.392;13.066;2022-07-06T00:12:04;28.90;37.10
24730;DHT22;12832;52.392;13.066;2022-07-06T00:14:30;28.90;37.00
24730;DHT22;12832;52.392;13.066;2022-07-06T00:16:57;28.90;37.00
24730;DHT22;12832;52.392;13.066;2022-07-06T00:19:23;28.90;37.00
24730;DHT22;12832;52.392;13.066;2022-07-06T00:21:49;28.90;37.00
24730;DHT22;12832;52.392;13.066;2022-07-06T00:24:15;28.90;37.00
24730;DHT22;12832;52.392;13.066;2022-07-06T00:26:46;28.90;37.10
24730;DHT22;12832;52.392;13.066;2022-07-06T00:29:12;28.90;37.10
24730;DHT22;12832;52.392;13.066;2022-07-06T00:31:39;28.90;37.00
24730;DHT22;12832;52.392;13.066;2022-07-06T00:34:05;28.90;37.00
24730;DHT22;12832;52.392;13.066;2022-07-06T00:36:31;28.90;37.00
24730;DHT22;12832;52.392;13.066;2022-07-06T00:38:57;28.90;37.00
24730;DHT22;12832;52.392;13.066;2022-07-06T00:41:24;28.90;37.00
24730;DHT22;12832;52.392;13.066;2022-07-06T00:43:55;28.90;37.00
24730;DHT22;12832;52.392;13.066;2022-07-06T00:46:35;28.90;37.00
24730;DHT22;12832;52.392;13.066;2022-07-06T00:49:04;28.90;37.00
24730;DHT22;12832;52.392;13.066;2022-07-06T00:51:38;28.90;37.00
24730;DHT22;12832;52.392;13.066;2022-07-06T00:54:07;29.00;37.00
24730;DHT22;12832;52.392;13.066;2022-07-06T00:56:34;28.90;37.00
24730;DHT22;12832;52.392;13.066;2022-07-06T00:59:04;29.00;37.00
24730;DHT22;12832;52.392;13.066;2022-07-06T01:01:31;28.90;37.00
24730;DHT22;12832;52.392;13.066;2022-07-06T01:03:59;28.90;37.00
24730;DHT22;12832;52.392;13.066;2022-07-06T01:06:27;28.90;37.00
24730;DHT22;12832;52.392;13.066;2022-07-06T01:08:59;28.90;37.10
24730;DHT22;12832;52.392;13.066;2022-07-06T01:11:26;28.90;37.10
24730;DHT22;12832;52.392;13.066;2022-07-06T01:13:53;29.00;37.10
24730;DHT22;12832;52.392;13.066;2022-07-06T01:16:24;28.90;37.10
24730;DHT22;12832;52.392;13.066;2022-07-06T01:18:53;28.90;37.10
24730;DHT22;12832;52.392;13.066;2022-07-06T01:21:21;28.90;37.10
24730;DHT22;12832;52.392;13.066;2022-07-06T01:23:48;28.90;37.00
24730;DHT22;12832;52.392;13.066;2022-07-06T01:26:19;28.90;37.10
24730;DHT22;12832;52.392;13.066;2022-07-06T01:28:57;28.90;37.00
24730;DHT22;12832;52.392;13.066;2022-07-06T01:31:25;29.00;37.10
24730;DHT22;12832;52.392;13.066;2022-07-06T01:33:54;29.00;37.10
24730;DHT22;12832;52.392;13.066;2022-07-06T01:36:23;29.00;37.10
24730;DHT22;12832;52.392;13.066;2022-07-06T01:38:53;28.90;37.10
24730;DHT22;12832;52.392;13.066;2022-07-06T01:41:21;28.90;37.10
24730;DHT22;12832;52.392;13.066;2022-07-06T01:43:51;28.90;37.10
24730;DHT22;12832;52.392;13.066;2022-07-06T01:46:17;28.90;37.10
24730;DHT22;12832;52.392;13.066;2022-07-06T01:48:44;28.90;37.00
24730;DHT22;12832;52.392;13.066;2022-07-06T01:51:13;28.90;37.00
24730;DHT22;12832;52.392;13.066;2022-07-06T01:53:41;29.00;37.10
24730;DHT22;12832;52.392;13.066;2022-07-06T01:56:08;28.90;37.10
24730;DHT22;12832;52.392;13.066;2022-07-06T01:58:34;28.90;37.10
24730;DHT22;12832;52.392;13.066;2022-07-06T02:01:06;29.00;37.10
24730;DHT22;12832;52.392;13.066;2022-07-06T02:03:32;28.90;37.10
24730;DHT22;12832;52.392;13.066;2022-07-06T02:05:59;28.90;37.10
24730;DHT22;12832;52.392;13.066;2022-07-06T02:08:25;28.90;37.00
24730;DHT22;12832;52.392;13.066;2022-07-06T02:10:52;29.00;37.10
24730;DHT22;12832;52.392;13.066;2022-07-06T02:13:21;28.90;37.10
24730;DHT22;12832;52.392;13.066;2022-07-06T02:15:52;29.00;37.10
24730;DHT22;12832;52.392;13.066;2022-07-06T02:18:18;29.00;37.10
24730;DHT22;12832;52.392;13.066;2022-07-06T02:20:45;28.90;37.10
24730;DHT22;12832;52.392;13.066;2022-07-06T02:23:13;28.90;37.10
24730;DHT22;12832;52.392;13.066;2022-07-06T02:25:39;29.00;37.10
24730;DHT22;12832;52.392;13.066;2022-07-06T02:28:08;29.00;37.10
24730;DHT22;12832;52.392;13.066;2022-07-06T02:30:35;29.00;37.10
24730;DHT22;12832;52.392;13.066;2022-07-06T02:33:04;29.00;37.10
24730;DHT22;12832;52.392;13.066;2022-07-06T02:35:31;29.00;37.10
24730;DHT22;12832;52.392;13.066;2022-07-06T02:38:00;29.00;37.10
24730;DHT22;12832;52.392;13.066;2022-07-06T02:40:26;29.00;37.10
24730;DHT22;12832;52.392;13.066;2022-07-06T02:42:52;29.00;37.10
24730;DHT22;12832;52.392;13.066;2022-07-06T02:45:18;29.00;37.10
24730;DHT22;12832;52.392;13.066;2022-07-06T02:47:44;29.00;37.10
24730;DHT22;12832;52.392;13.066;2022-07-06T02:50:13;28.90;37.10
24730;DHT22;12832;52.392;13.066;2022-07-06T02:52:40;29.00;37.10
24730;DHT22;12832;52.392;13.066;2022-07-06T02:55:08;29.00;37.10
24730;DHT22;12832;52.392;13.066;2022-07-06T02:57:38;29.00;37.10
24730;DHT22;12832;52.392;13.066;2022-07-06T03:00:09;29.00;37.10
24730;DHT22;12832;52.392;13.066;2022-07-06T03:02:39;29.00;37.10
24730;DHT22;12832;52.392;13.066;2022-07-06T03:05:06;29.00;37.10
24730;DHT22;12832;52.392;13.066;2022-07-06T03:07:33;29.00;37.10
24730;DHT22;12832;52.392;13.066;2022-07-06T03:10:00;29.00;37.10
24730;DHT22;12832;52.392;13.066;2022-07-06T03:12:29;29.00;37.80
24730;DHT22;12832;52.392;13.066;2022-07-06T03:14:59;29.00;37.10
24730;DHT22;12832;52.392;13.066;2022-07-06T03:17:29;29.00;37.10
24730;DHT22;12832;52.392;13.066;2022-07-06T03:19:57;29.00;37.10
24730;DHT22;12832;52.392;13.066;2022-07-06T03:22:24;29.00;37.10
24730;DHT22;12832;52.392;13.066;2022-07-06T03:24:50;29.00;37.10
24730;DHT22;12832;52.392;13.066;2022-07-06T03:27:16;29.00;37.10
24730;DHT22;12832;52.392;13.066;2022-07-06T03:29:43;29.00;37.10
24730;DHT22;12832;52.392;13.066;2022-07-06T03:32:10;29.00;36.90
24730;DHT22;12832;52.392;13.066;2022-07-06T03:34:36;29.00;36.80
24730;DHT22;12832;52.392;13.066;2022-07-06T03:37:04;29.10;36.80
24730;DHT22;12832;52.392;13.066;2022-07-06T03:39:30;29.10;36.70
24730;DHT22;12832;52.392;13.066;2022-07-06T03:41:58;29.10;36.70
24730;DHT22;12832;52.392;13.066;2022-07-06T03:44:25;29.10;36.70
24730;DHT22;12832;52.392;13.066;2022-07-06T03:46:52;29.10;37.00
24730;DHT22;12832;52.392;13.066;2022-07-06T03:49:23;29.10;37.30
24730;DHT22;12832;52.392;13.066;2022-07-06T03:51:53;29.10;37.40
24730;DHT22;12832;52.392;13.066;2022-07-06T03:54:22;29.10;37.70
24730;DHT22;12832;52.392;13.066;2022-07-06T03:56:51;29.10;37.90
24730;DHT22;12832;52.392;13.066;2022-07-06T03:59:18;29.20;38.40
24730;DHT22;12832;52.392;13.066;2022-07-06T04:01:44;29.20;38.40
24730;DHT22;12832;52.392;13.066;2022-07-06T04:04:10;29.20;38.30
24730;DHT22;12832;52.392;13.066;2022-07-06T04:06:36;29.10;38.10
24730;DHT22;12832;52.392;13.066;2022-07-06T04:09:03;29.20;38.00
24730;DHT22;12832;52.392;13.066;2022-07-06T04:11:29;29.20;38.00
24730;DHT22;12832;52.392;13.066;2022-07-06T04:13:55;29.20;37.90
24730;DHT22;12832;52.392;13.066;2022-07-06T04:16:21;29.20;37.90
24730;DHT22;12832;52.392;13.066;2022-07-06T04:18:47;29.20;37.80
24730;DHT22;12832;52.392;13.066;2022-07-06T04:21:14;29.20;37.90
24730;DHT22;12832;52.392;13.066;2022-07-06T04:23:40;29.20;37.80
24730;DHT22;12832;52.392;13.066;2022-07-06T04:26:06;29.20;37.80
24730;DHT22;12832;52.392;13.066;2022-07-06T04:28:32;29.20;37.80
24730;DHT22;12832;52.392;13.066;2022-07-06T04:30:58;29.10;37.70
24730;DHT22;12832;52.392;13.066;2022-07-06T04:33:24;29.10;37.60
24730;DHT22;12832;52.392;13.066;2022-07-06T04:36:12;29.10;37.30
24730;DHT22;12832;52.392;13.066;2022-07-06T04:38:45;29.10;37.20
24730;DHT22;12832;52.392;13.066;2022-07-06T04:41:13;29.10;37.20
24730;DHT22;12832;52.392;13.066;2022-07-06T04:43:43;29.00;37.00
24730;DHT22;12832;52.392;13.066;2022-07-06T04:46:13;29.00;37.10
24730;DHT22;12832;52.392;13.066;2022-07-06T04:48:40;29.00;37.00
24730;DHT22;12832;52.392;13.066;2022-07-06T04:51:07;29.00;37.00
24730;DHT22;12832;52.392;13.066;2022-07-06T04:53:34;28.90;36.90
24730;DHT22;12832;52.392;13.066;2022-07-06T04:56:00;28.90;36.90
24730;DHT22;12832;52.392;13.066;2022-07-06T04:58:27;28.90;37.00
24730;DHT22;12832;52.392;13.066;2022-07-06T05:01:03;28.90;37.00
24730;DHT22;12832;52.392;13.066;2022-07-06T05:03:31;28.90;37.00
24730;DHT22;12832;52.392;13.066;2022-07-06T05:05:58;28.90;37.00
24730;DHT22;12832;52.392;13.066;2022-07-06T05:08:25;28.90;37.10
24730;DHT22;12832;52.392;13.066;2022-07-06T05:10:52;28.80;37.00
24730;DHT22;12832;52.392;13.066;2022-07-06T05:13:18;28.80;37.00
24730;DHT22;12832;52.392;13.066;2022-07-06T05:15:48;28.80;37.10
24730;DHT22;12832;52.392;13.066;2022-07-06T05:18:25;28.80;37.10
24730;DHT22;12832;52.392;13.066;2022-07-06T05:20:56;28.80;37.10
24730;DHT22;12832;52.392;13.066;2022-07-06T05:23:22;28.80;37.10
24730;DHT22;12832;52.392;13.066;2022-07-06T05:26:06;28.80;37.20
24730;DHT22;12832;52.392;13.066;2022-07-06T05:28:33;28.70;37.00
24730;DHT22;12832;52.392;13.066;2022-07-06T05:31:13;28.70;37.00
24730;DHT22;12832;52.392;13.066;2022-07-06T05:33:42;28.70;37.10
24730;DHT22;12832;52.392;13.066;2022-07-06T05:36:11;28.70;37.10
24730;DHT22;12832;52.392;13.066;2022-07-06T05:38:38;28.70;37.10
24730;DHT22;12832;52.392;13.066;2022-07-06T05:41:07;28.70;37.10
24730;DHT22;12832;52.392;13.066;2022-07-06T05:43:38;28.70;37.10
24730;DHT22;12832;52.392;13.066;2022-07-06T05:46:06;28.70;37.10
24730;DHT22;12832;52.392;13.066;2022-07-06T05:48:32;28.70;37.10
24730;DHT22;12832;52.392;13.066;2022-07-06T05:51:20;28.70;37.10
24730;DHT22;12832;52.392;13.066;2022-07-06T05:53:54;28.70;37.00
24730;DHT22;12832;52.392;13.066;2022-07-06T05:56:20;28.60;37.00
24730;DHT22;12832;52.392;13.066;2022-07-06T05:58:55;28.60;37.00
24730;DHT22;12832;52.392;13.066;2022-07-06T06:01:21;28.60;37.00
24730;DHT22;12832;52.392;13.066;2022-07-06T06:03:47;28.60;37.00
24730;DHT22;12832;52.392;13.066;2022-07-06T06:06:13;28.60;37.10
24730;DHT22;12832;52.392;13.066;2022-07-06T06:08:40;28.60;37.10
24730;DHT22;12832;52.392;13.066;2022-07-06T06:11:12;28.60;37.10
24730;DHT22;12832;52.392;13.066;2022-07-06T06:13:38;28.60;37.10
24730;DHT22;12832;52.392;13.066;2022-07-06T06:16:07;28.60;37.20
24730;DHT22;12832;52.392;13.066;2022-07-06T06:18:35;28.60;37.10
24730;DHT22;12832;52.392;13.066;2022-07-06T06:21:08;28.60;37.10
24730;DHT22;12832;52.392;13.066;2022-07-06T06:23:34;28.60;37.10
24730;DHT22;12832;52.392;13.066;2022-07-06T06:26:01;28.60;37.10
24730;DHT22;12832;52.392;13.066;2022-07-06T06:28:30;28.60;37.10
24730;DHT22;12832;52.392;13.066;2022-07-06T06:31:04;28.60;37.10
24730;DHT22;12832;52.392;13.066;2022-07-06T06:33:32;28.60;37.10
24730;DHT22;12832;52.392;13.066;2022-07-06T06:35:59;28.60;37.10
24730;DHT22;12832;52.392;13.066;2022-07-06T06:38:26;28.50;37.00
24730;DHT22;12832;52.392;13.066;2022-07-06T06:40:58;28.50;37.00
24730;DHT22;12832;52.392;13.066;2022-07-06T06:43:52;28.50;37.00
24730;DHT22;12832;52.392;13.066;2022-07-06T06:46:18;28.50;37.00
24730;DHT22;12832;52.392;13.066;2022-07-06T06:48:45;28.50;37.00
24730;DHT22;12832;52.392;13.066;2022-07-06T06:51:11;28.50;37.00
24730;DHT22;12832;52.392;13.066;2022-07-06T06:53:37;28.50;37.00
24730;DHT22;12832;52.392;13.066;2022-07-06T06:56:07;28.50;36.90
24730;DHT22;12832;52.392;13.066;2022-07-06T06:58:35;28.50;36.90
24730;DHT22;12832;52.392;13.066;2022-07-06T07:01:30;28.50;36.90
24730;DHT22;12832;52.392;13.066;2022-07-06T07:03:58;28.40;36.70
24730;DHT22;12832;52.392;13.066;2022-07-06T07:06:24;28.50;36.80
24730;DHT22;12832;52.392;13.066;2022-07-06T07:08:50;28.50;36.80
24730;DHT22;12832;52.392;13.066;2022-07-06T07:11:17;28.50;36.80
24730;DHT22;12832;52.392;13.066;2022-07-06T07:13:45;28.50;36.80
24730;DHT22;12832;52.392;13.066;2022-07-06T07:16:13;28.50;36.80
24730;DHT22;12832;52.392;13.066;2022-07-06T07:18:43;28.40;36.80
24730;DHT22;12832;52.392;13.066;2022-07-06T07:21:10;28.50;36.80
24730;DHT22;12832;52.392;13.066;2022-07-06T07:23:36;28.40;36.80
24730;DHT22;12832;52.392;13.066;2022-07-06T07:26:02;28.50;36.90
24730;DHT22;12832;52.392;13.066;2022-07-06T07:28:28;28.40;36.70
24730;DHT22;12832;52.392;13.066;2022-07-06T07:30:54;28.40;36.70
24730;DHT22;12832;52.392;13.066;2022-07-06T07:33:21;28.40;36.60
24730;DHT22;12832;52.392;13.066;2022-07-06T07:35:47;28.40;36.60
24730;DHT22;12832;52.392;13.066;2022-07-06T07:38:13;28.40;36.50
24730;DHT22;12832;52.392;13.066;2022-07-06T07:40:39;28.40;36.40
24730;DHT22;12832;52.392;13.066;2022-07-06T07:43:05;28.40;36.40
24730;DHT22;12832;52.392;13.066;2022-07-06T07:45:32;28.40;36.30
24730;DHT22;12832;52.392;13.066;2022-07-06T07:47:58;28.40;36.30
24730;DHT22;12832;52.392;13.066;2022-07-06T07:50:24;28.40;36.30
24730;DHT22;12832;52.392;13.066;2022-07-06T07:52:50;28.40;36.20
24730;DHT22;12832;52.392;13.066;2022-07-06T07:55:16;28.40;36.20
24730;DHT22;12832;52.392;13.066;2022-07-06T07:58:02;28.40;36.10
24730;DHT22;12832;52.392;13.066;2022-07-06T08:00:28;28.40;36.10
24730;DHT22;12832;52.392;13.066;2022-07-06T08:02:55;28.40;36.20
24730;DHT22;12832;52.392;13.066;2022-07-06T08:05:26;28.40;36.20
24730;DHT22;12832;52.392;13.066;2022-07-06T08:08:23;28.40;36.20
24730;DHT22;12832;52.392;13.066;2022-07-06T08:10:50;28.40;36.10
24730;DHT22;12832;52.392;13.066;2022-07-06T08:13:46;28.40;36.20
24730;DHT22;12832;52.392;13.066;2022-07-06T08:16:12;28.30;36.10
24730;DHT22;12832;52.392;13.066;2022-07-06T08:18:38;28.30;36.10
24730;DHT22;12832;52.392;13.066;2022-07-06T08:21:08;28.30;36.10
24730;DHT22;12832;52.392;13.066;2022-07-06T08:23:54;28.30;36.10
24730;DHT22;12832;52.392;13.066;2022-07-06T08:26:24;28.30;36.10
24730;DHT22;12832;52.392;13.066;2022-07-06T08:28:57;28.20;36.00
24730;DHT22;12832;52.392;13.066;2022-07-06T08:31:45;28.30;35.90
24730;DHT22;12832;52.392;13.066;2022-07-06T08:34:31;28.30;35.90
24730;DHT22;12832;52.392;13.066;2022-07-06T08:37:06;28.20;35.90
24730;DHT22;12832;52.392;13.066;2022-07-06T08:39:39;28.30;35.90
24730;DHT22;12832;52.392;13.066;2022-07-06T08:42:16;28.30;36.00
24730;DHT22;12832;52.392;13.066;2022-07-06T08:44:43;28.30;35.80
24730;DHT22;12832;52.392;13.066;2022-07-06T08:47:12;28.30;35.90
24730;DHT22;12832;52.392;13.066;2022-07-06T08:49:39;28.30;35.90
24730;DHT22;12832;52.392;13.066;2022-07-06T08:52:10;28.30;36.00
24730;DHT22;12832;52.392;13.066;2022-07-06T08:54:41;28.30;35.90
24730;DHT22;12832;52.392;13.066;2022-07-06T08:57:07;28.30;35.90
24730;DHT22;12832;52.392;13.066;2022-07-06T08:59:38;28.30;35.80
24730;DHT22;12832;52.392;13.066;2022-07-06T09:02:05;28.20;35.80
24730;DHT22;12832;52.392;13.066;2022-07-06T09:04:43;28.20;35.90
24730;DHT22;12832;52.392;13.066;2022-07-06T09:07:18;28.20;35.70
24730;DHT22;12832;52.392;13.066;2022-07-06T09:10:28;28.20;35.70
24730;DHT22;12832;52.392;13.066;2022-07-06T09:13:07;28.20;35.70
24730;DHT22;12832;52.392;13.066;2022-07-06T09:16:35;28.20;35.70
24730;DHT22;12832;52.392;13.066;2022-07-06T09:19:06;28.20;35.70
24730;DHT22;12832;52.392;13.066;2022-07-06T09:21:36;28.20;35.80
24730;DHT22;12832;52.392;13.066;2022-07-06T09:24:12;28.20;35.80
24730;DHT22;12832;52.392;13.066;2022-07-06T09:26:47;28.20;35.80
24730;DHT22;12832;52.392;13.066;2022-07-06T09:29:14;28.20;35.70
24730;DHT22;12832;52.392;13.066;2022-07-06T09:32:00;28.20;35.80
24730;DHT22;12832;52.392;13.066;2022-07-06T09:34:52;28.20;35.90
24730;DHT22;12832;52.392;13.066;2022-07-06T09:37:45;28.20;35.80
24730;DHT22;12832;52.392;13.066;2022-07-06T09:40:17;28.20;35.80
24730;DHT22;12832;52.392;13.066;2022-07-06T09:42:44;28.20;35.80
24730;DHT22;12832;52.392;13.066;2022-07-06T09:45:21;28.20;35.80
24730;DHT22;12832;52.392;13.066;2022-07-06T09:47:52;28.20;35.80
24730;DHT22;12832;52.392;13.066;2022-07-06T09:53:28;28.20;35.80
24730;DHT22;12832;52.392;13.066;2022-07-06T09:55:56;28.20;35.70
24730;DHT22;12832;52.392;13.066;2022-07-06T09:58:50;28.20;35.60
24730;DHT22;12832;52.392;13.066;2022-07-06T10:01:37;28.20;35.50
24730;DHT22;12832;52.392;13.066;2022-07-06T10:04:06;28.20;35.50
24730;DHT22;12832;52.392;13.066;2022-07-06T10:06:34;28.10;35.40
24730;DHT22;12832;52.392;13.066;2022-07-06T10:09:01;28.10;35.10
24730;DHT22;12832;52.392;13.066;2022-07-06T10:11:28;28.10;35.10
24730;DHT22;12832;52.392;13.066;2022-07-06T10:13:57;28.10;35.10
24730;DHT22;12832;52.392;13.066;2022-07-06T10:16:49;28.20;35.20
24730;DHT22;12832;52.392;13.066;2022-07-06T10:19:17;28.10;35.20
24730;DHT22;12832;52.392;13.066;2022-07-06T10:21:44;28.10;35.10
24730;DHT22;12832;52.392;13.066;2022-07-06T10:24:11;28.10;35.20
24730;DHT22;12832;52.392;13.066;2022-07-06T10:26:39;28.10;35.00
24730;DHT22;12832;52.392;13.066;2022-07-06T10:29:06;28.10;35.00
24730;DHT22;12832;52.392;13.066;2022-07-06T10:31:34;28.10;35.00
24730;DHT22;12832;52.392;13.066;2022-07-06T10:34:03;28.10;34.90
24730;DHT22;12832;52.392;13.066;2022-07-06T10:36:31;28.10;35.00
24730;DHT22;12832;52.392;13.066;2022-07-06T10:38:57;28.10;34.90
24730;DHT22;12832;52.392;13.066;2022-07-06T10:41:31;28.10;34.90
24730;DHT22;12832;52.392;13.066;2022-07-06T10:43:58;28.10;34.80
24730;DHT22;12832;52.392;13.066;2022-07-06T10:46:40;28.10;35.00
24730;DHT22;12832;52.392;13.066;2022-07-06T10:49:15;28.10;34.80
24730;DHT22;12832;52.392;13.066;2022-07-06T10:52:04;28.10;34.70
24730;DHT22;12832;52.392;13.066;2022-07-06T10:54:43;28.10;34.60
24730;DHT22;12832;52.392;13.066;2022-07-06T10:57:11;28.10;34.80
24730;DHT22;12832;52.392;13.066;2022-07-06T11:00:04;28.10;34.60
24730;DHT22;12832;52.392;13.066;2022-07-06T11:02:45;28.10;34.50
24730;DHT22;12832;52.392;13.066;2022-07-06T11:05:42;28.10;34.50
24730;DHT22;12832;52.392;13.066;2022-07-06T11:08:44;28.10;34.50
24730;DHT22;12832;52.392;13.066;2022-07-06T11:11:23;28.10;34.50
24730;DHT22;12832;52.392;13.066;2022-07-06T11:14:20;28.10;34.50
24730;DHT22;12832;52.392;13.066;2022-07-06T11:20:31;28.10;34.50
24730;DHT22;12832;52.392;13.066;2022-07-06T11:23:45;28.10;34.50
24730;DHT22;12832;52.392;13.066;2022-07-06T11:26:16;28.10;34.50
24730;DHT22;12832;52.392;13.066;2022-07-06T11:28:48;28.00;34.50
24730;DHT22;12832;52.392;13.066;2022-07-06T11:31:47;28.10;34.50
24730;DHT22;12832;52.392;13.066;2022-07-06T11:37:08;28.00;34.40
24730;DHT22;12832;52.392;13.066;2022-07-06T11:39:46;28.10;34.50
24730;DHT22;12832;52.392;13.066;2022-07-06T11:42:40;28.00;34.50
24730;DHT22;12832;52.392;13.066;2022-07-06T11:45:49;28.10;34.50
24730;DHT22;12832;52.392;13.066;2022-07-06T11:48:17;28.10;34.50
24730;DHT22;12832;52.392;13.066;2022-07-06T11:51:00;28.10;34.50
24730;DHT22;12832;52.392;13.066;2022-07-06T11:53:27;28.00;34.50
24730;DHT22;12832;52.392;13.066;2022-07-06T11:55:54;28.00;34.40
24730;DHT22;12832;52.392;13.066;2022-07-06T11:58:45;28.00;34.50
24730;DHT22;12832;52.392;13.066;2022-07-06T12:01:19;28.00;34.40
24730;DHT22;12832;52.392;13.066;2022-07-06T12:03:47;28.00;34.50
24730;DHT22;12832;52.392;13.066;2022-07-06T12:06:25;28.00;34.40
24730;DHT22;12832;52.392;13.066;2022-07-06T12:08:54;28.00;34.40
24730;DHT22;12832;52.392;13.066;2022-07-06T12:11:25;28.00;34.50
24730;DHT22;12832;52.392;13.066;2022-07-06T12:13:53;28.00;34.40
24730;DHT22;12832;52.392;13.066;2022-07-06T12:16:20;28.00;34.40
24730;DHT22;12832;52.392;13.066;2022-07-06T12:18:58;28.00;34.30
24730;DHT22;12832;52.392;13.066;2022-07-06T12:21:36;28.00;34.30
24730;DHT22;12832;52.392;13.066;2022-07-06T12:24:16;28.00;34.30
24730;DHT22;12832;52.392;13.066;2022-07-06T12:26:52;28.00;34.20
24730;DHT22;12832;52.392;13.066;2022-07-06T12:29:26;28.00;34.30
24730;DHT22;12832;52.392;13.066;2022-07-06T12:31:54;28.00;34.30
24730;DHT22;12832;52.392;13.066;2022-07-06T12:34:25;28.00;34.30
24730;DHT22;12832;52.392;13.066;2022-07-06T12:37:05;28.00;34.30
24730;DHT22;12832;52.392;13.066;2022-07-06T12:39:44;28.00;34.40
24730;DHT22;12832;52.392;13.066;2022-07-06T12:42:20;28.00;34.30
24730;DHT22;12832;52.392;13.066;2022-07-06T12:44:51;28.00;34.30
24730;DHT22;12832;52.392;13.066;2022-07-06T12:47:18;28.00;34.30
24730;DHT22;12832;52.392;13.066;2022-07-06T12:50:03;28.00;34.30
24730;DHT22;12832;52.392;13.066;2022-07-06T12:52:33;28.00;34.20
24730;DHT22;12832;52.392;13.066;2022-07-06T12:55:01;28.00;34.30
24730;DHT22;12832;52.392;13.066;2022-07-06T12:57:56;28.00;34.30
24730;DHT22;12832;52.392;13.066;2022-07-06T13:00:24;28.00;34.30
24730;DHT22;12832;52.392;13.066;2022-07-06T13:03:22;28.00;34.30
24730;DHT22;12832;52.392;13.066;2022-07-06T13:06:03;28.00;34.30
24730;DHT22;12832;52.392;13.066;2022-07-06T13:08:30;28.00;34.30
24730;DHT22;12832;52.392;13.066;2022-07-06T13:10:56;28.00;34.30
24730;DHT22;12832;52.392;13.066;2022-07-06T13:13:28;28.00;34.30
24730;DHT22;12832;52.392;13.066;2022-07-06T13:15:55;28.00;34.40
24730;DHT22;12832;52.392;13.066;2022-07-06T13:18:25;28.00;34.40
24730;DHT22;12832;52.392;13.066;2022-07-06T13:21:20;28.00;34.40
24730;DHT22;12832;52.392;13.066;2022-07-06T13:23:47;28.00;34.40
24730;DHT22;12832;52.392;13.066;2022-07-06T13:26:13;28.00;34.40
24730;DHT22;12832;52.392;13.066;2022-07-06T13:28:43;28.00;34.40
24730;DHT22;12832;52.392;13.066;2022-07-06T13:31:09;28.00;34.30
24730;DHT22;12832;52.392;13.066;2022-07-06T13:33:45;28.00;34.30
24730;DHT22;12832;52.392;13.066;2022-07-06T13:36:15;28.00;34.30
24730;DHT22;12832;52.392;13.066;2022-07-06T13:38:44;28.00;34.30
24730;DHT22;12832;52.392;13.066;2022-07-06T13:41:12;28.00;34.30
24730;DHT22;12832;52.392;13.066;2022-07-06T13:43:52;28.00;34.30
24730;DHT22;12832;52.392;13.066;2022-07-06T13:46:43;27.90;34.10
24730;DHT22;12832;52.392;13.066;2022-07-06T13:49:12;28.00;34.20
24730;DHT22;12832;52.392;13.066;2022-07-06T13:51:42;28.00;34.20
24730;DHT22;12832;52.392;13.066;2022-07-06T13:54:09;28.00;34.20
24730;DHT22;12832;52.392;13.066;2022-07-06T13:56:37;28.00;34.20
24730;DHT22;12832;52.392;13.066;2022-07-06T13:59:04;28.00;34.30
24730;DHT22;12832;52.392;13.066;2022-07-06T14:01:31;27.90;34.10
24730;DHT22;12832;52.392;13.066;2022-07-06T14:04:26;28.00;34.20
24730;DHT22;12832;52.392;13.066;2022-07-06T14:07:00;28.00;34.10
24730;DHT22;12832;52.392;13.066;2022-07-06T14:09:30;28.00;34.20
24730;DHT22;12832;52.392;13.066;2022-07-06T14:11:56;27.90;34.10
24730;DHT22;12832;52.392;13.066;2022-07-06T14:14:23;28.00;34.20
24730;DHT22;12832;52.392;13.066;2022-07-06T14:16:51;28.00;34.20
24730;DHT22;12832;52.392;13.066;2022-07-06T14:19:21;28.00;34.20
24730;DHT22;12832;52.392;13.066;2022-07-06T14:21:51;28.00;34.20
24730;DHT22;12832;52.392;13.066;2022-07-06T14:24:23;28.00;34.20
24730;DHT22;12832;52.392;13.066;2022-07-06T14:27:23;27.90;34.10
24730;DHT22;12832;52.392;13.066;2022-07-06T14:30:18;28.00;34.20
24730;DHT22;12832;52.392;13.066;2022-07-06T14:33:10;27.90;34.10
24730;DHT22;12832;52.392;13.066;2022-07-06T14:35:40;27.90;34.00
24730;DHT22;12832;52.392;13.066;2022-07-06T14:38:07;27.90;34.10
24730;DHT22;12832;52.392;13.066;2022-07-06T14:40:35;27.90;34.10
24730;DHT22;12832;52.392;13.066;2022-07-06T14:43:05;27.90;34.00
24730;DHT22;12832;52.392;13.066;2022-07-06T14:45:35;27.90;34.00
24730;DHT22;12832;52.392;13.066;2022-07-06T14:48:06;28.00;34.20
24730;DHT22;12832;52.392;13.066;2022-07-06T14:50:36;27.90;34.00
24730;DHT22;12832;52.392;13.066;2022-07-06T14:53:06;27.90;34.10
24730;DHT22;12832;52.392;13.066;2022-07-06T14:55:34;27.90;34.10
24730;DHT22;12832;52.392;13.066;2022-07-06T14:58:04;27.90;34.10
24730;DHT22;12832;52.392;13.066;2022-07-06T15:00:32;27.90;34.10
24730;DHT22;12832;52.392;13.066;2022-07-06T15:03:06;27.90;34.10
24730;DHT22;12832;52.392;13.066;2022-07-06T15:06:06;27.90;34.10
24730;DHT22;12832;52.392;13.066;2022-07-06T15:08:34;28.00;34.20
24730;DHT22;12832;52.392;13.066;2022-07-06T15:11:00;27.90;34.10
24730;DHT22;12832;52.392;13.066;2022-07-06T15:13:26;27.90;34.10
24730;DHT22;12832;52.392;13.066;2022-07-06T15:15:57;27.90;34.20
24730;DHT22;12832;52.392;13.066;2022-07-06T15:18:25;27.90;34.10
24730;DHT22;12832;52.392;13.066;2022-07-06T15:20:52;27.90;34.20
24730;DHT22;12832;52.392;13.066;2022-07-06T15:23:19;27.90;34.10
24730;DHT22;12832;52.392;13.066;2022-07-06T15:25:49;27.90;34.10
24730;DHT22;12832;52.392;13.066;2022-07-06T15:28:23;27.90;34.10
24730;DHT22;12832;52.392;13.066;2022-07-06T15:30:55;27.90;34.10
24730;DHT22;12832;52.392;13.066;2022-07-06T15:33:22;27.90;34.20
24730;DHT22;12832;52.392;13.066;2022-07-06T15:35:49;27.90;34.10
24730;DHT22;12832;52.392;13.066;2022-07-06T15:38:15;27.90;34.10
24730;DHT22;12832;52.392;13.066;2022-07-06T15:40:43;27.90;34.20
24730;DHT22;12832;52.392;13.066;2022-07-06T15:43:58;27.90;34.30
24730;DHT22;12832;52.392;13.066;2022-07-06T15:46:25;27.90;34.30
24730;DHT22;12832;52.392;13.066;2022-07-06T15:48:55;27.90;34.30
24730;DHT22;12832;52.392;13.066;2022-07-06T15:51:21;27.90;34.40
24730;DHT22;12832;52.392;13.066;2022-07-06T15:53:49;27.90;34.40